Portada
METAR-TAF:

METAR-TAF

Aeroports :

Aiacciu, França

latitud: 41-55N, longitud: 008-48E, altitud: 6 m

Observació

L'informe es va fer fa 39 minuts, a les 21:30 UTC
Vent 1 kt amb direcció variable
Temperatura 23°C
Humitat 61%
Pressió 1019 hPa
Visibilitat 10 km o més
sense núvols per sota de 1500 mi sense presència de cumulonimbus.

METAR: LFKJ 202130Z AUTO VRB01KT CAVOK 23/15 Q1019 NOSIG

Hora: 00:09 (22:09 UTC)

Pronòstic

L'informe es va fer fa 2 hores i 9 minuts, a les 20:00 UTC
Pronòstic vàlid del 20 a les 21 UTC al 21 a les 21 UTC
Vent 4 kt del Nord-Est
Visibilitat 10 km o més
sense núvols per sota de 1500 mi sense presència de cumulonimbus.
Temporalment
l' 21 a les 07 UTC al 21 a les 16 UTC
Vent 10 kt del Sud-Oest

TAF: LFKJ 202000Z 2021/2121 05004KT CAVOK TEMPO 2107/2116 22010KT

Observacions i pronòstics meteorològics de més de 4000 aeroports (METAR i TAF).

Les estacions disponibles són els punts grocs i vermells al mapa.

Posi el ratolí al punt desitjat per veure el nom de l'estació.

Feu clic per veure les observacions i els pronòstics meteorològics.

Per canviar el mapa: feu clic els botons verds amb una creu de color negre per apropar; al botó verd amb un guió per allunyar la imatge; o en les fletxes verdes per a mapes adjacents.


METAR-TAF: